Time;durP1;ratioP1;P1;durP2;ratioP2;P2;SDS_P1;SDS_P2;PMS_P1;PMS_P2;Temp;Humidity;BMP_temperature;BMP_pressure;BME280_temperature;BME280_humidity;BME280_pressure;Samples;Min_cycle;Max_cycle;Signal;HPM_P1;HPM_P2
2022/05/30 00:01:22;;;;;;;5.23;2.97;;;5.70;99.90;;;;;;5016305;28;20080;-80
2022/05/30 00:03:48;;;;;;;5.70;3.20;;;5.60;99.90;;;;;;5016531;28;20030;-80
2022/05/30 00:06:16;;;;;;;5.97;3.10;;;5.60;99.90;;;;;;5010575;28;20419;-80
2022/05/30 00:08:43;;;;;;;4.23;3.10;;;5.60;99.90;;;;;;5008985;28;20026;-80
2022/05/30 00:11:10;;;;;;;4.47;3.07;;;5.60;99.90;;;;;;5015958;28;20378;-80
2022/05/30 00:13:36;;;;;;;3.83;3.03;;;5.50;99.90;;;;;;5016000;28;20459;-80
2022/05/30 00:16:07;;;;;;;3.50;2.93;;;5.50;99.90;;;;;;5015917;28;20037;-80
2022/05/30 00:18:33;;;;;;;3.40;2.90;;;5.50;99.90;;;;;;5015036;28;20479;-80
2022/05/30 00:20:59;;;;;;;4.93;2.97;;;5.50;99.90;;;;;;5015903;28;20053;-80
2022/05/30 00:23:25;;;;;;;5.37;3.00;;;5.40;99.90;;;;;;5014768;28;20025;-80
2022/05/30 00:25:51;;;;;;;3.67;2.93;;;5.40;99.90;;;;;;5015950;28;20084;-81
2022/05/30 00:28:16;;;;;;;4.50;2.90;;;5.30;99.90;;;;;;5015400;28;20034;-80
2022/05/30 00:30:44;;;;;;;5.30;3.33;;;5.30;99.90;;;;;;5015687;28;20036;-80
2022/05/30 00:33:11;;;;;;;9.07;4.13;;;5.30;99.90;;;;;;5015622;28;20014;-80
2022/05/30 00:35:38;;;;;;;5.33;3.63;;;5.20;99.90;;;;;;5015865;28;20026;-80
2022/05/30 00:38:04;;;;;;;3.63;2.90;;;5.10;99.90;;;;;;5015470;28;20094;-80
2022/05/30 00:40:31;;;;;;;4.50;3.43;;;5.10;99.90;;;;;;5015800;28;20475;-80
2022/05/30 00:43:15;;;;;;;4.70;3.30;;;5.10;99.90;;;;;;5014898;28;20476;-79
2022/05/30 00:45:41;;;;;;;4.23;3.13;;;5.10;99.90;;;;;;5015125;28;20038;-79
2022/05/30 00:48:07;;;;;;;4.73;3.30;;;5.10;99.90;;;;;;5014726;28;20369;-79
2022/05/30 00:50:33;;;;;;;5.90;3.30;;;5.10;99.90;;;;;;5015311;28;20025;-79
2022/05/30 00:53:01;;;;;;;5.33;3.10;;;5.10;99.90;;;;;;5014667;28;20366;-78
2022/05/30 00:55:27;;;;;;;3.97;3.10;;;5.10;99.90;;;;;;5012722;28;20030;-79
2022/05/30 00:57:53;;;;;;;3.83;2.97;;;5.10;99.90;;;;;;5014462;28;20029;-79
2022/05/30 01:00:25;;;;;;;5.10;3.13;;;5.10;99.90;;;;;;5014681;28;20021;-79
2022/05/30 01:06:30;;;;;;;5.27;3.20;;;5.10;99.90;;;;;;5014323;28;20026;-78
2022/05/30 01:08:27;;;;;;;4.33;3.50;;;5.00;99.90;;;;;;5014530;28;20120;-79
2022/05/30 01:10:53;;;;;;;4.03;3.23;;;5.00;99.90;;;;;;5014196;28;20030;-79
2022/05/30 01:13:19;;;;;;;4.10;3.27;;;5.00;99.90;;;;;;5029367;28;20128;-79
2022/05/30 01:15:44;;;;;;;5.67;3.20;;;5.00;99.90;;;;;;5014745;28;20030;-79
2022/05/30 01:18:21;;;;;;;5.70;3.03;;;5.00;99.90;;;;;;5013733;28;20069;-79
2022/05/30 01:21:02;;;;;;;5.30;3.33;;;5.00;99.90;;;;;;5013010;28;20029;-79
2022/05/30 01:23:52;;;;;;;3.93;2.73;;;5.00;99.90;;;;;;5013638;28;20382;-78
2022/05/30 01:26:23;;;;;;;3.17;2.87;;;4.90;99.90;;;;;;5014220;28;20129;-78
2022/05/30 01:28:57;;;;;;;5.37;3.30;;;4.90;99.90;;;;;;5014181;28;20100;-79
2022/05/30 01:31:24;;;;;;;4.37;3.40;;;4.90;99.90;;;;;;5006763;28;20030;-79
2022/05/30 01:33:53;;;;;;;4.50;3.40;;;4.90;99.90;;;;;;5012460;28;20268;-78
2022/05/30 01:36:28;;;;;;;4.70;2.97;;;4.90;99.90;;;;;;5012798;28;20103;-78
2022/05/30 01:38:54;;;;;;;4.60;3.20;;;4.90;99.90;;;;;;5012605;28;20076;-78
2022/05/30 01:41:20;;;;;;;4.73;3.70;;;4.90;99.90;;;;;;5014093;28;20029;-78
2022/05/30 01:43:45;;;;;;;3.47;2.80;;;4.90;99.90;;;;;;5028939;28;20362;-78
2022/05/30 01:46:24;;;;;;;4.60;2.90;;;4.80;99.90;;;;;;5013726;28;20026;-78
2022/05/30 01:48:53;;;;;;;3.43;3.00;;;4.80;99.90;;;;;;5013461;28;20026;-78
2022/05/30 01:51:24;;;;;;;4.47;3.00;;;4.70;99.90;;;;;;5013648;28;20187;-78
2022/05/30 01:53:52;;;;;;;5.30;2.80;;;4.80;99.90;;;;;;5008317;28;20042;-78
2022/05/30 01:56:21;;;;;;;2.80;2.53;;;4.70;99.90;;;;;;5003113;28;20546;-78
2022/05/30 01:58:47;;;;;;;7.00;3.00;;;4.70;99.90;;;;;;5012324;28;20047;-78
2022/05/30 02:01:16;;;;;;;3.63;3.17;;;4.70;99.90;;;;;;5028551;28;20033;-78
2022/05/30 02:03:45;;;;;;;3.40;2.83;;;4.70;99.90;;;;;;5013515;28;20025;-78
2022/05/30 02:06:14;;;;;;;4.10;3.00;;;4.60;99.90;;;;;;4997926;28;20463;-78
2022/05/30 02:08:42;;;;;;;3.30;2.80;;;4.60;99.90;;;;;;5013407;28;20018;-78
2022/05/30 02:11:10;;;;;;;7.07;2.93;;;4.60;99.90;;;;;;5013323;28;20442;-78
2022/05/30 02:13:37;;;;;;;3.30;2.70;;;4.50;99.90;;;;;;5011930;28;20387;-78
2022/05/30 02:18:51;;;;;;;5.23;2.70;;;4.50;99.90;;;;;;5013567;28;20113;-80
2022/05/30 02:21:17;;;;;;;4.40;2.47;;;4.50;99.90;;;;;;5014278;28;20038;-80
2022/05/30 02:23:43;;;;;;;5.50;3.17;;;4.40;99.90;;;;;;5013808;28;20466;-79
2022/05/30 02:26:10;;;;;;;5.23;2.50;;;4.50;99.90;;;;;;5013571;28;20108;-80
2022/05/30 02:28:36;;;;;;;4.70;2.60;;;4.40;99.90;;;;;;5013540;28;20480;-79
2022/05/30 02:31:01;;;;;;;4.17;2.83;;;4.50;99.90;;;;;;5013238;28;20018;-79
2022/05/30 02:38:55;;;;;;;3.90;2.93;;;4.40;99.90;;;;;;5013259;28;20426;-79
2022/05/30 02:41:21;;;;;;;6.00;3.20;;;4.40;99.90;;;;;;5013331;28;20030;-79
2022/05/30 02:43:47;;;;;;;5.67;2.87;;;4.40;99.90;;;;;;5013441;28;20033;-79
2022/05/30 02:46:13;;;;;;;3.60;2.97;;;4.40;99.90;;;;;;5013146;28;20025;-80
2022/05/30 02:48:38;;;;;;;3.80;3.40;;;4.40;99.90;;;;;;5013454;28;20105;-80
2022/05/30 02:51:04;;;;;;;4.20;2.87;;;4.30;99.90;;;;;;5011999;28;20112;-80
2022/05/30 02:53:30;;;;;;;3.23;2.63;;;4.30;99.90;;;;;;5011173;28;20490;-79
2022/05/30 02:55:56;;;;;;;3.80;3.10;;;4.30;99.90;;;;;;5012415;28;20022;-79
2022/05/30 02:58:22;;;;;;;5.63;3.30;;;4.30;99.90;;;;;;5013023;28;20028;-80
2022/05/30 03:00:48;;;;;;;5.27;3.70;;;4.30;99.90;;;;;;5013334;28;20093;-80
2022/05/30 03:03:13;;;;;;;4.00;3.20;;;4.30;99.90;;;;;;5013112;28;20064;-80
2022/05/30 03:05:39;;;;;;;4.37;3.20;;;4.30;99.90;;;;;;5013176;28;20506;-80
2022/05/30 03:08:08;;;;;;;4.80;3.77;;;4.30;99.90;;;;;;5013269;28;20021;-80
2022/05/30 03:10:34;;;;;;;4.90;3.57;;;4.30;99.90;;;;;;5028844;28;20121;-79
2022/05/30 03:13:00;;;;;;;6.80;4.13;;;4.30;99.90;;;;;;5013275;28;20041;-80
2022/05/30 03:15:26;;;;;;;4.97;3.73;;;4.30;99.90;;;;;;5013154;28;20022;-80
2022/05/30 03:17:51;;;;;;;5.93;3.60;;;4.30;99.90;;;;;;5014628;28;20042;-80
2022/05/30 03:20:20;;;;;;;4.63;3.73;;;4.30;99.90;;;;;;5016995;28;20026;-80
2022/05/30 03:22:47;;;;;;;6.90;3.67;;;4.30;99.90;;;;;;5017267;28;20057;-80
2022/05/30 03:25:14;;;;;;;5.37;3.60;;;4.30;99.90;;;;;;5017108;28;20034;-79
2022/05/30 03:27:40;;;;;;;6.23;4.07;;;4.30;99.90;;;;;;5016842;28;20371;-80
2022/05/30 03:30:06;;;;;;;5.30;4.00;;;4.30;99.90;;;;;;5017163;28;20021;-80
2022/05/30 03:32:33;;;;;;;5.13;3.00;;;4.30;99.90;;;;;;5015984;28;20033;-79
2022/05/30 03:34:59;;;;;;;4.00;3.00;;;4.30;99.90;;;;;;5016756;28;20020;-80
2022/05/30 03:37:25;;;;;;;4.13;3.20;;;4.30;99.90;;;;;;5016065;28;20128;-80
2022/05/30 03:39:51;;;;;;;4.40;3.77;;;4.20;99.90;;;;;;5016875;28;20499;-79
2022/05/30 03:42:16;;;;;;;4.97;3.63;;;4.20;99.90;;;;;;5016843;28;20116;-79
2022/05/30 03:44:42;;;;;;;4.73;3.80;;;4.20;99.90;;;;;;5016849;28;20037;-79
2022/05/30 03:47:08;;;;;;;4.47;3.90;;;4.20;99.90;;;;;;5016535;28;20050;-79
2022/05/30 03:49:34;;;;;;;7.10;4.40;;;4.30;99.90;;;;;;5015193;28;20080;-79
2022/05/30 03:52:00;;;;;;;4.83;4.20;;;4.30;99.90;;;;;;5016381;28;20101;-80
2022/05/30 03:54:26;;;;;;;4.90;3.80;;;4.30;99.90;;;;;;5007296;28;20507;-80
2022/05/30 03:56:52;;;;;;;4.90;4.10;;;4.30;99.90;;;;;;5017140;28;20072;-80
2022/05/30 03:59:17;;;;;;;5.40;4.03;;;4.40;99.90;;;;;;5016788;28;20045;-80
2022/05/30 04:01:43;;;;;;;5.80;4.20;;;4.50;99.90;;;;;;5016322;28;20029;-80
2022/05/30 04:04:10;;;;;;;6.63;4.00;;;4.60;99.90;;;;;;5016430;28;20061;-80
2022/05/30 04:06:35;;;;;;;4.97;4.17;;;4.60;99.90;;;;;;5016281;28;20105;-80
2022/05/30 04:09:01;;;;;;;6.03;3.77;;;4.70;99.90;;;;;;5016116;28;20057;-80
2022/05/30 04:11:26;;;;;;;5.27;3.70;;;4.80;99.90;;;;;;5016112;28;20022;-80
2022/05/30 04:13:52;;;;;;;5.60;3.70;;;4.80;99.90;;;;;;5011333;28;20019;-80
2022/05/30 04:16:18;;;;;;;4.67;3.47;;;4.90;99.90;;;;;;5009054;28;20032;-80
2022/05/30 04:18:44;;;;;;;4.23;3.73;;;5.00;99.90;;;;;;5014449;28;20044;-80
2022/05/30 04:21:11;;;;;;;5.30;3.83;;;5.10;99.90;;;;;;5016318;28;20025;-81
2022/05/30 04:23:40;;;;;;;4.47;3.50;;;5.20;99.90;;;;;;5015955;28;20038;-81
2022/05/30 04:26:07;;;;;;;5.00;3.77;;;5.20;99.90;;;;;;5014926;28;20037;-80
2022/05/30 04:28:33;;;;;;;7.27;3.40;;;5.30;99.90;;;;;;5015603;28;20366;-81
2022/05/30 04:30:59;;;;;;;6.50;3.67;;;5.30;99.90;;;;;;5015691;28;20105;-80
2022/05/30 04:33:25;;;;;;;4.60;4.10;;;5.30;99.90;;;;;;5015826;28;20088;-81
2022/05/30 04:35:51;;;;;;;5.10;3.53;;;5.40;99.90;;;;;;5015619;28;20022;-80
2022/05/30 04:38:16;;;;;;;5.80;3.70;;;5.40;99.90;;;;;;5015433;28;20033;-81
2022/05/30 04:40:42;;;;;;;4.00;3.47;;;5.50;99.90;;;;;;5015131;28;20029;-81
2022/05/30 04:43:07;;;;;;;4.30;3.60;;;5.60;99.90;;;;;;5015257;28;20533;-81
2022/05/30 04:45:33;;;;;;;6.27;3.50;;;5.70;99.90;;;;;;5017081;28;20022;-80
2022/05/30 04:48:03;;;;;;;6.87;5.03;;;5.80;99.90;;;;;;5015249;28;20390;-81
2022/05/30 04:50:31;;;;;;;14.67;11.30;;;5.80;99.90;;;;;;5008028;28;20076;-81
2022/05/30 04:52:57;;;;;;;9.23;7.63;;;5.90;99.90;;;;;;5024003;28;20513;-81
2022/05/30 04:55:22;;;;;;;7.67;5.80;;;6.00;99.90;;;;;;5026885;28;20018;-81
2022/05/30 04:57:52;;;;;;;6.13;5.10;;;6.10;99.90;;;;;;5008794;28;20018;-81
2022/05/30 05:00:25;;;;;;;5.07;3.50;;;6.10;99.90;;;;;;5009248;28;20076;-81
2022/05/30 05:02:54;;;;;;;5.83;3.97;;;6.20;99.90;;;;;;5012161;28;20018;-81
2022/05/30 05:05:22;;;;;;;9.57;3.77;;;6.30;99.90;;;;;;5030100;28;20379;-81
2022/05/30 05:08:06;;;;;;;5.63;3.73;;;6.40;99.90;;;;;;5012732;28;20057;-81
2022/05/30 05:10:46;;;;;;;6.70;4.20;;;6.50;99.90;;;;;;5013176;28;20030;-81
2022/05/30 05:13:12;;;;;;;5.80;5.20;;;6.60;99.90;;;;;;4871202;28;20044;-81
2022/05/30 05:15:46;;;;;;;8.17;7.37;;;6.60;99.90;;;;;;5018586;28;20022;-81
2022/05/30 05:18:14;;;;;;;5.43;4.82;;;6.70;99.90;;;;;;5013495;28;20433;-81
2022/05/30 05:20:55;;;;;;;5.13;3.97;;;6.70;99.90;;;;;;5017484;28;20045;-81
2022/05/30 05:23:24;;;;;;;6.33;4.83;;;6.90;99.90;;;;;;5013734;28;20029;-81
2022/05/30 05:25:52;;;;;;;7.57;4.10;;;7.10;99.90;;;;;;5007243;28;20406;-81
2022/05/30 05:28:17;;;;;;;7.53;3.90;;;7.20;99.90;;;;;;5022752;28;20518;-81
2022/05/30 05:30:43;;;;;;;7.27;4.30;;;7.40;99.90;;;;;;5012308;28;20108;-81
2022/05/30 05:33:10;;;;;;;10.60;7.23;;;7.50;99.90;;;;;;5014402;28;20052;-81
2022/05/30 05:35:43;;;;;;;27.13;17.83;;;7.70;99.90;;;;;;5033714;28;20029;-81
2022/05/30 05:38:13;;;;;;;51.10;33.97;;;7.90;99.90;;;;;;5009794;28;20104;-82
2022/05/30 05:40:45;;;;;;;13.57;9.60;;;8.00;99.90;;;;;;5012500;28;20105;-81
2022/05/30 05:43:13;;;;;;;11.43;7.33;;;8.10;99.90;;;;;;5021659;28;20779;-81
2022/05/30 05:45:43;;;;;;;11.10;7.50;;;8.30;99.90;;;;;;5028296;28;20024;-81
2022/05/30 05:48:10;;;;;;;5.40;4.00;;;8.30;99.90;;;;;;5012691;28;20105;-81
2022/05/30 05:50:43;;;;;;;14.47;10.67;;;8.30;99.90;;;;;;5028135;28;20018;-81
2022/05/30 05:53:16;;;;;;;9.93;6.40;;;8.40;99.90;;;;;;5012763;28;20515;-81
2022/05/30 05:55:45;;;;;;;23.17;11.03;;;8.50;99.90;;;;;;5011029;28;20025;-79
2022/05/30 05:58:13;;;;;;;13.73;7.27;;;8.60;99.90;;;;;;5012941;28;20034;-80
2022/05/30 06:00:39;;;;;;;11.47;6.60;;;8.70;99.90;;;;;;5011899;28;20022;-80
2022/05/30 06:03:04;;;;;;;9.57;5.50;;;8.80;99.90;;;;;;5013404;28;20092;-79
2022/05/30 06:05:32;;;;;;;7.10;5.80;;;9.00;99.90;;;;;;5028339;28;20025;-79
2022/05/30 06:08:01;;;;;;;8.33;5.97;;;9.20;99.90;;;;;;5012679;28;20040;-79
2022/05/30 06:10:27;;;;;;;9.93;6.43;;;9.30;99.90;;;;;;5013207;28;20021;-79
2022/05/30 06:12:52;;;;;;;8.27;6.20;;;9.40;99.90;;;;;;5010455;28;20088;-80
2022/05/30 06:15:20;;;;;;;7.53;5.93;;;9.30;99.90;;;;;;5005021;28;20157;-80
2022/05/30 06:17:46;;;;;;;9.33;6.57;;;9.20;99.90;;;;;;5009981;28;20096;-80
2022/05/30 06:20:15;;;;;;;7.03;6.10;;;9.30;99.90;;;;;;5011784;28;20022;-80
2022/05/30 06:22:41;;;;;;;8.20;5.23;;;9.40;99.90;;;;;;5013122;28;20022;-80
2022/05/30 06:25:09;;;;;;;7.73;5.77;;;9.60;99.90;;;;;;5013327;28;20191;-80
2022/05/30 06:27:35;;;;;;;7.33;6.17;;;9.70;99.90;;;;;;5023070;28;20091;-80
2022/05/30 06:30:04;;;;;;;7.80;5.30;;;9.70;99.90;;;;;;5014766;28;20076;-80
2022/05/30 06:32:34;;;;;;;8.53;6.40;;;9.70;99.90;;;;;;5013712;28;20026;-80
2022/05/30 06:34:59;;;;;;;10.57;6.20;;;9.80;99.90;;;;;;5020758;28;20801;-79
2022/05/30 06:37:25;;;;;;;8.03;6.43;;;9.90;99.90;;;;;;5013191;28;20080;-79
2022/05/30 06:39:54;;;;;;;8.03;5.90;;;10.00;99.90;;;;;;5013118;28;20022;-79
2022/05/30 06:42:19;;;;;;;5.83;4.87;;;10.20;99.90;;;;;;5014772;28;20708;-79
2022/05/30 06:44:45;;;;;;;5.83;4.97;;;10.40;99.90;;;;;;5017967;28;20022;-79
2022/05/30 06:47:13;;;;;;;6.27;5.13;;;10.50;99.90;;;;;;5027171;28;20026;-79
2022/05/30 06:49:42;;;;;;;6.87;5.20;;;10.70;99.90;;;;;;5004892;28;20034;-79
2022/05/30 06:52:15;;;;;;;8.00;6.20;;;10.70;99.90;;;;;;5020905;28;20034;-80
2022/05/30 06:54:43;;;;;;;6.10;5.50;;;10.90;99.90;;;;;;5005757;28;20429;-80
2022/05/30 06:59:55;;;;;;;6.55;4.70;;;10.90;99.90;;;;;;5004933;28;20037;-79
2022/05/30 07:02:21;;;;;;;8.75;5.15;;;11.10;99.90;;;;;;5008207;28;20029;-80
2022/05/30 07:04:47;;;;;;;6.68;5.07;;;11.00;99.90;;;;;;5012927;28;20101;-80
2022/05/30 07:07:12;;;;;;;6.10;5.03;;;11.00;99.90;;;;;;5027643;28;20564;-79
2022/05/30 07:09:39;;;;;;;7.03;4.67;;;10.90;99.90;;;;;;5012906;28;20022;-80
2022/05/30 07:12:06;;;;;;;6.10;4.88;;;10.90;99.90;;;;;;5011520;28;20053;-80
2022/05/30 07:14:32;;;;;;;4.22;3.83;;;10.90;99.90;;;;;;5012289;28;20029;-79
2022/05/30 07:16:58;;;;;;;6.55;3.95;;;11.00;99.90;;;;;;5013118;28;20109;-80
2022/05/30 07:19:23;;;;;;;4.37;3.97;;;11.00;99.90;;;;;;5012965;28;20490;-79
2022/05/30 07:21:49;;;;;;;5.40;4.17;;;11.00;99.90;;;;;;5012787;28;20041;-79
2022/05/30 07:24:14;;;;;;;6.38;4.07;;;11.00;99.90;;;;;;5012539;28;20032;-79
2022/05/30 07:26:40;;;;;;;6.00;3.80;;;11.00;99.90;;;;;;5012586;28;20065;-79
2022/05/30 07:29:06;;;;;;;5.25;3.40;;;11.00;99.90;;;;;;5012756;28;20022;-79
2022/05/30 07:31:32;;;;;;;8.35;4.20;;;11.00;99.90;;;;;;5011980;28;20463;-79
2022/05/30 07:33:58;;;;;;;5.45;4.18;;;11.10;99.90;;;;;;5012740;28;20021;-79
2022/05/30 07:36:29;;;;;;;5.05;3.70;;;11.10;99.90;;;;;;5012869;28;20022;-79
2022/05/30 07:38:55;;;;;;;5.63;3.87;;;11.10;99.90;;;;;;5011134;28;20367;-80
2022/05/30 07:41:23;;;;;;;4.15;3.15;;;11.20;99.90;;;;;;5012602;28;20037;-79
2022/05/30 07:43:49;;;;;;;4.20;3.35;;;11.30;99.90;;;;;;4998609;28;20044;-79
2022/05/30 07:46:16;;;;;;;4.03;3.50;;;11.40;99.90;;;;;;5010956;28;20497;-79
2022/05/30 07:48:42;;;;;;;3.85;3.22;;;11.60;99.90;;;;;;5012338;28;20122;-80
2022/05/30 07:51:11;;;;;;;4.95;3.28;;;11.70;99.90;;;;;;5012437;28;20467;-79
2022/05/30 07:53:37;;;;;;;7.43;3.22;;;11.80;99.90;;;;;;5012054;28;20014;-80
2022/05/30 07:56:08;;;;;;;4.57;3.00;;;11.90;99.90;;;;;;5020074;28;20160;-80
2022/05/30 07:58:36;;;;;;;4.47;3.20;;;12.00;99.90;;;;;;5027735;28;20030;-79
2022/05/30 08:01:01;;;;;;;4.97;2.78;;;12.10;99.90;;;;;;5010967;28;20109;-80
2022/05/30 08:03:27;;;;;;;6.05;2.95;;;12.20;99.90;;;;;;5013173;28;20105;-80
2022/05/30 08:06:08;;;;;;;4.00;2.15;;;12.30;99.90;;;;;;5016504;28;20026;-80
2022/05/30 08:08:33;;;;;;;5.90;2.10;;;12.40;99.90;;;;;;5015265;28;20101;-80
2022/05/30 08:10:59;;;;;;;5.95;2.35;;;12.50;99.90;;;;;;5015637;28;20164;-80
2022/05/30 08:13:24;;;;;;;5.63;1.90;;;12.60;99.90;;;;;;5030904;28;20022;-79
2022/05/30 08:15:50;;;;;;;3.38;1.92;;;12.60;99.90;;;;;;5028797;28;20348;-80
2022/05/30 08:18:18;;;;;;;4.93;2.40;;;12.80;99.90;;;;;;5002842;28;20052;-80
2022/05/30 08:20:44;;;;;;;4.93;1.90;;;13.00;99.90;;;;;;5023997;28;20018;-80
2022/05/30 08:23:12;;;;;;;8.15;1.90;;;13.00;99.90;;;;;;5025837;28;20033;-80
2022/05/30 08:25:39;;;;;;;4.10;1.95;;;13.10;99.90;;;;;;5019964;28;20032;-80
2022/05/30 08:28:05;;;;;;;3.97;1.75;;;13.10;99.90;;;;;;5015264;28;20085;-80
2022/05/30 08:30:31;;;;;;;2.92;1.60;;;13.10;99.90;;;;;;5015233;28;20030;-80
2022/05/30 08:32:56;;;;;;;3.00;1.70;;;13.10;99.90;;;;;;5015180;28;20038;-80
2022/05/30 08:35:23;;;;;;;3.22;1.60;;;13.10;99.90;;;;;;5015117;28;20471;-80
2022/05/30 08:37:49;;;;;;;3.95;1.70;;;13.10;99.90;;;;;;5018392;28;20018;-80
2022/05/30 08:43:52;;;;;;;2.88;1.45;;;13.10;99.90;;;;;;5014837;28;20080;-80
2022/05/30 08:46:43;;;;;;;2.08;1.23;;;13.10;99.90;;;;;;5002025;28;20044;-80
2022/05/30 08:49:22;;;;;;;3.15;1.50;;;13.20;99.90;;;;;;5013763;28;20740;-80
2022/05/30 08:52:16;;;;;;;1.90;1.33;;;13.40;99.90;;;;;;5013592;28;20053;-80
2022/05/30 08:55:05;;;;;;;2.20;1.63;;;13.60;99.90;;;;;;5010599;28;20033;-80
2022/05/30 08:57:33;;;;;;;3.28;1.50;;;13.80;99.90;;;;;;5013820;28;20109;-80
2022/05/30 09:00:11;;;;;;;3.42;1.58;;;13.90;99.90;;;;;;5014865;28;20713;-79
2022/05/30 09:02:46;;;;;;;2.90;1.50;;;14.10;99.90;;;;;;5014436;28;20034;-79
2022/05/30 09:05:27;;;;;;;3.47;1.58;;;14.30;99.90;;;;;;5014546;28;20449;-79
2022/05/30 09:07:56;;;;;;;3.78;1.80;;;14.40;99.90;;;;;;5013026;28;20037;-79
2022/05/30 09:10:31;;;;;;;4.50;2.10;;;14.50;99.90;;;;;;5014431;28;20032;-79
2022/05/30 09:13:06;;;;;;;3.22;1.48;;;14.70;99.90;;;;;;5013565;28;20439;-79
2022/05/30 09:15:36;;;;;;;3.08;1.90;;;14.70;99.90;;;;;;5014204;28;20030;-79
2022/05/30 09:18:16;;;;;;;3.38;2.03;;;14.60;99.90;;;;;;5001941;28;20037;-78
2022/05/30 09:20:42;;;;;;;2.88;1.70;;;14.50;99.90;;;;;;5014225;28;20129;-79
2022/05/30 09:23:09;;;;;;;3.40;1.98;;;14.30;99.90;;;;;;5014145;28;20097;-79
2022/05/30 09:25:56;;;;;;;4.82;1.90;;;14.30;99.90;;;;;;5012686;28;20050;-79
2022/05/30 09:28:23;;;;;;;2.65;1.63;;;14.40;99.90;;;;;;5028052;28;20088;-78
2022/05/30 09:31:03;;;;;;;2.42;1.77;;;14.60;99.90;;;;;;5014053;28;20032;-78
2022/05/30 09:33:32;;;;;;;2.97;1.90;;;14.80;99.90;;;;;;5013243;28;20034;-79
2022/05/30 09:36:19;;;;;;;3.13;1.80;;;15.10;99.90;;;;;;5013706;28;20018;-79
2022/05/30 09:38:55;;;;;;;2.28;1.77;;;15.20;99.90;;;;;;5009813;28;20479;-79
2022/05/30 09:41:24;;;;;;;4.55;1.80;;;15.10;99.90;;;;;;5012937;28;20224;-79
2022/05/30 09:43:54;;;;;;;3.47;1.90;;;15.10;99.90;;;;;;5011152;28;20498;-79
2022/05/30 09:46:38;;;;;;;2.78;1.50;;;15.00;99.90;;;;;;5011920;28;20466;-79
2022/05/30 09:49:16;;;;;;;4.30;1.92;;;14.90;99.90;;;;;;5006997;28;20113;-79
2022/05/30 09:51:44;;;;;;;1.95;1.45;;;15.20;99.90;;;;;;5015117;28;20386;-79
2022/05/30 09:54:25;;;;;;;2.20;1.80;;;15.40;99.90;;;;;;5005323;28;20050;-79
2022/05/30 09:56:57;;;;;;;4.97;1.77;;;15.50;99.90;;;;;;5002597;28;20078;-79
2022/05/30 09:59:51;;;;;;;2.10;1.80;;;15.40;99.90;;;;;;5007225;28;20024;-80
2022/05/30 10:02:23;;;;;;;4.40;1.73;;;15.10;99.90;;;;;;5005753;28;20057;-80
2022/05/30 10:04:55;;;;;;;6.75;1.90;;;15.00;99.90;;;;;;5006909;28;20045;-79
2022/05/30 10:07:21;;;;;;;4.18;1.83;;;15.20;99.90;;;;;;5027881;28;20026;-80
2022/05/30 10:10:01;;;;;;;2.30;1.73;;;15.50;99.90;;;;;;5010669;28;20029;-79
2022/05/30 10:12:41;;;;;;;4.25;1.80;;;15.70;99.90;;;;;;5004889;28;20572;-80
2022/05/30 10:15:53;;;;;;;2.88;1.80;;;15.70;99.90;;;;;;5012940;28;20071;-79
2022/05/30 10:18:29;;;;;;;3.20;1.67;;;15.70;99.90;;;;;;5012648;28;20104;-79
2022/05/30 10:21:17;;;;;;;3.30;2.00;;;15.50;99.90;;;;;;5012834;28;20022;-79
2022/05/30 10:30:41;;;;;;;1.90;1.67;;;16.50;99.90;;;;;;5008933;28;20080;-80
2022/05/30 10:33:32;;;;;;;3.13;1.60;;;16.90;99.90;;;;;;5008310;28;20058;-80
2022/05/30 10:36:29;;;;;;;3.55;1.40;;;16.90;99.90;;;;;;5011724;28;20045;-79
2022/05/30 10:39:14;;;;;;;3.42;1.50;;;16.60;99.90;;;;;;4997441;28;20038;-79
2022/05/30 10:42:01;;;;;;;3.13;1.50;;;16.60;99.90;;;;;;5018723;28;20439;-80
2022/05/30 10:44:33;;;;;;;5.68;1.50;;;17.10;99.90;;;;;;5017912;28;20026;-80
2022/05/30 10:47:35;;;;;;;4.85;1.90;;;17.60;99.90;;;;;;5009764;28;20412;-82
2022/05/30 10:50:47;;;;;;;4.05;1.70;;;18.10;99.90;;;;;;5022596;28;20040;-82
2022/05/30 10:53:32;;;;;;;1.95;1.35;;;18.20;99.90;;;;;;4996529;28;20046;-79
2022/05/30 10:56:01;;;;;;;3.88;1.60;;;18.50;99.90;;;;;;5011172;28;20379;-79
2022/05/30 10:58:32;;;;;;;2.03;1.42;;;18.60;99.90;;;;;;5020797;28;20516;-80
2022/05/30 11:01:09;;;;;;;5.15;1.60;;;18.60;99.90;;;;;;5016110;28;20537;-79
2022/05/30 11:04:23;;;;;;;2.85;1.65;;;18.30;99.90;;;;;;5010404;28;20123;-79
2022/05/30 11:06:51;;;;;;;4.35;1.80;;;18.00;99.90;;;;;;4984453;28;20038;-79
2022/05/30 11:09:26;;;;;;;2.35;1.58;;;17.60;99.90;;;;;;4998125;28;20472;-79
2022/05/30 11:12:08;;;;;;;2.08;1.60;;;17.30;99.90;;;;;;5003970;28;20026;-79
2022/05/30 11:14:44;;;;;;;2.80;1.50;;;17.00;99.90;;;;;;5007504;28;20030;-79
2022/05/30 11:17:24;;;;;;;2.60;1.50;;;17.00;99.90;;;;;;5009003;28;20056;-79
2022/05/30 11:20:22;;;;;;;4.40;1.70;;;17.20;99.90;;;;;;5025074;28;20038;-79
2022/05/30 11:22:54;;;;;;;3.05;1.70;;;17.80;99.90;;;;;;5009134;28;20033;-79
2022/05/30 11:26:02;;;;;;;4.22;1.40;;;18.30;99.90;;;;;;5010827;28;20034;-80
2022/05/30 11:28:45;;;;;;;2.35;1.40;;;18.90;99.90;;;;;;5010128;28;20026;-80
2022/05/30 11:31:26;;;;;;;1.92;1.40;;;19.40;99.90;;;;;;5011024;28;20494;-80
2022/05/30 11:34:08;;;;;;;4.07;1.45;;;20.00;99.90;;;;;;5009826;28;20471;-80
2022/05/30 11:36:57;;;;;;;4.10;1.30;;;20.60;99.90;;;;;;5022767;28;20028;-80
2022/05/30 11:39:28;;;;;;;1.77;1.30;;;21.00;99.90;;;;;;5009248;28;20022;-80
2022/05/30 11:42:38;;;;;;;2.85;1.42;;;21.20;98.70;;;;;;5011585;28;20045;-80
2022/05/30 11:45:44;;;;;;;4.80;1.52;;;21.10;99.30;;;;;;5011820;28;20026;-80
2022/05/30 11:48:24;;;;;;;3.72;1.80;;;21.10;99.90;;;;;;5013386;28;20088;-79
2022/05/30 11:51:05;;;;;;;3.63;1.65;;;21.40;98.10;;;;;;5012153;28;20541;-79
2022/05/30 11:53:59;;;;;;;1.75;1.40;;;21.30;96.60;;;;;;5009929;28;20030;-79
2022/05/30 11:56:39;;;;;;;2.47;1.70;;;20.60;96.60;;;;;;5012585;28;20048;-79
2022/05/30 11:59:36;;;;;;;2.72;1.60;;;20.10;98.50;;;;;;5028361;28;20483;-79
2022/05/30 12:02:12;;;;;;;5.55;1.92;;;19.70;98.80;;;;;;5010637;28;20049;-80
2022/05/30 12:05:09;;;;;;;2.38;1.50;;;19.50;98.00;;;;;;5012677;28;20044;-79
2022/05/30 12:07:56;;;;;;;2.25;1.55;;;19.20;96.90;;;;;;5012559;28;20475;-79
2022/05/30 12:10:43;;;;;;;2.67;1.80;;;18.80;97.60;;;;;;5012779;28;20423;-79
2022/05/30 12:13:27;;;;;;;4.47;2.00;;;18.40;98.00;;;;;;5003957;28;20042;-79
2022/05/30 12:16:04;;;;;;;2.50;1.70;;;18.20;99.90;;;;;;5027784;28;20607;-80
2022/05/30 12:24:40;;;;;;;3.05;1.73;;;18.30;99.40;;;;;;5013007;28;20487;-80
2022/05/30 12:27:12;;;;;;;2.78;1.60;;;18.90;98.00;;;;;;5001415;28;20784;-80
2022/05/30 12:29:37;;;;;;;4.28;1.58;;;20.00;94.20;;;;;;5009322;28;20325;-79
2022/05/30 12:32:21;;;;;;;2.75;1.77;;;20.30;94.30;;;;;;5012702;28;20136;-78
2022/05/30 12:37:51;;;;;;;3.28;2.08;;;21.40;94.40;;;;;;5012629;28;20060;-79
2022/05/30 12:40:25;;;;;;;2.72;1.55;;;21.60;94.00;;;;;;5012202;28;20032;-79
2022/05/30 12:43:13;;;;;;;2.85;1.85;;;21.60;92.50;;;;;;5012320;28;20109;-79
2022/05/30 12:45:44;;;;;;;3.85;2.35;;;21.60;91.10;;;;;;5012924;28;20041;-79
2022/05/30 12:48:22;;;;;;;2.25;1.75;;;21.10;92.90;;;;;;5006281;28;20501;-79
2022/05/30 12:50:51;;;;;;;2.75;1.73;;;20.30;91.90;;;;;;5012165;28;20034;-79
2022/05/30 12:53:18;;;;;;;2.95;1.50;;;19.60;93.00;;;;;;5008841;28;20491;-79
2022/05/30 12:55:47;;;;;;;2.78;1.70;;;19.10;95.10;;;;;;5012975;28;20443;-79
2022/05/30 12:58:19;;;;;;;4.18;1.85;;;18.80;96.10;;;;;;5012389;28;20022;-79
2022/05/30 13:00:47;;;;;;;2.92;1.60;;;18.70;95.60;;;;;;5012515;28;20072;-79
2022/05/30 13:03:29;;;;;;;3.78;1.90;;;18.60;96.40;;;;;;5011854;28;20486;-79
2022/05/30 13:06:14;;;;;;;4.57;1.65;;;18.40;96.20;;;;;;5007658;28;20024;-79
2022/05/30 13:08:54;;;;;;;3.13;1.75;;;18.30;96.20;;;;;;5009134;28;20029;-79
2022/05/30 13:11:41;;;;;;;2.70;1.67;;;18.10;97.10;;;;;;5011743;28;20450;-79
2022/05/30 13:14:33;;;;;;;3.70;1.60;;;17.90;98.60;;;;;;5009400;28;20075;-79
2022/05/30 13:17:05;;;;;;;2.60;1.50;;;17.80;97.70;;;;;;4994702;28;20045;-80
2022/05/30 13:19:30;;;;;;;3.90;1.70;;;17.70;98.90;;;;;;5011517;28;20045;-79
2022/05/30 13:21:57;;;;;;;2.95;1.70;;;17.80;96.20;;;;;;5012544;28;20029;-79
2022/05/30 13:24:35;;;;;;;3.30;1.63;;;17.80;95.90;;;;;;5012223;28;20681;-79
2022/05/30 13:27:02;;;;;;;2.65;1.35;;;18.20;99.50;;;;;;5012337;28;20033;-80
2022/05/30 13:29:41;;;;;;;2.53;1.60;;;18.50;99.20;;;;;;5012168;28;20030;-79
2022/05/30 13:32:13;;;;;;;2.08;1.50;;;18.70;96.50;;;;;;4999837;28;20032;-79
2022/05/30 13:34:48;;;;;;;3.22;1.90;;;18.90;95.70;;;;;;5027104;28;20109;-79
2022/05/30 13:37:20;;;;;;;2.50;1.70;;;18.80;95.00;;;;;;5013164;28;20037;-79
2022/05/30 13:39:46;;;;;;;2.30;1.60;;;18.80;96.40;;;;;;5012904;28;20018;-79
2022/05/30 13:42:15;;;;;;;3.97;1.90;;;18.70;97.00;;;;;;5012281;28;20037;-85
2022/05/30 13:44:42;;;;;;;4.80;1.95;;;18.60;97.70;;;;;;5011182;28;20025;-72
2022/05/30 13:47:13;;;;;;;3.20;1.70;;;18.60;97.80;;;;;;5010484;28;20408;-72